Home > Products > Valid Products > MTR

000
SAUS43 KBIS 182253
MTRN60
METAR KN60 182252Z AUTO 00000KT M04/M06 A2998 RMK AO1 SLP185
T10391056





000
SAUS43 KBIS 182154
MTRN60
METAR KN60 182152Z AUTO 22006KT M04/M06 A2998 RMK AO1 SLP184
T10391061





000
SAUS43 KBIS 182054
MTRN60
METAR KN60 182052Z AUTO 18007KT M04/M06 A2998 RMK AO1 SLP184
T10441061 56017





000
SAUS43 KBIS 181954
MTRN60
METAR KN60 181952Z AUTO 19007KT M05/M07 A2999 RMK AO1 SLP188
T10501072





000
SAUS43 KBIS 181854
MTRN60
METAR KN60 181852Z AUTO 18008KT M06/M07 A3000 RMK AO1 SLP196
T10561072





000
SAUS43 KBIS 181754
MTRN60
METAR KN60 181752Z AUTO 19007KT M07/M08 A3003 RMK AO1 SLP207
T10671078 11067 21078 58002





000
SAUS43 KBIS 181654
MTRN60
METAR KN60 181652Z AUTO 18008KT M07/M08 A3004 RMK AO1 SLP210
T10671078





000
SAUS43 KBIS 181554
MTRN60
METAR KN60 181552Z AUTO 17007KT M07/M08 A3004 RMK AO1 SLP212
T10721083





000
SAUS43 KBIS 181454
MTRN60
METAR KN60 181452Z AUTO 17007KT M07/M09 A3004 RMK AO1 SLP211
T10721089 55003





000
SAUS43 KBIS 181354
MTRN60
METAR KN60 181352Z AUTO 15008KT M08/M09 A3004 RMK AO1 SLP211
T10781094





000
SAUS43 KBIS 181354
MTRN60
METAR KN60 181352Z AUTO 15008KT M08/M09 A3004 RMK AO1 SLP211
T10781094





000
SAUS43 KBIS 181253
MTRN60
METAR KN60 181252Z AUTO 16008KT M08/M09 A3004 RMK AO1 SLP212
T10781094





000
SAUS43 KBIS 181253
MTRN60
METAR KN60 181252Z AUTO 16008KT M08/M09 A3004 RMK AO1 SLP212
T10781094





000
SAUS43 KBIS 181154
MTRN60
METAR KN60 181152Z AUTO 17006KT M08/M09 A3005 RMK AO1 SLP214
T10781094 11078 21106 56013





000
SAUS43 KBIS 181054
MTRN60
METAR KN60 181052Z AUTO 16009KT M08/M09 A3006 RMK AO1 SLP216
T10781094





000
SAUS43 KBIS 181054
MTRN60
METAR KN60 181052Z AUTO 16009KT M08/M09 A3006 RMK AO1 SLP216
T10781094





000
SAUS43 KBIS 180954
MTRN60
METAR KN60 180952Z AUTO 16010KT M08/M10 A3007 RMK AO1 SLP220
T10781100





000
SAUS43 KBIS 180854
MTRN60
METAR KN60 180852Z AUTO 16007KT M08/M09 A3009 RMK AO1 SLP227
T10781094 56009





000
SAUS43 KBIS 180854
MTRN60
METAR KN60 180852Z AUTO 16007KT M08/M09 A3009 RMK AO1 SLP227
T10781094 56009





000
SAUS43 KBIS 180754
MTRN60
METAR KN60 180752Z AUTO 14007KT M08/M10 A3010 RMK AO1 SLP228
T10831100





000
SAUS43 KBIS 180754
MTRN60
METAR KN60 180752Z AUTO 14007KT M08/M10 A3010 RMK AO1 SLP228
T10831100





000
SAUS43 KBIS 180653
MTRN60
METAR KN60 180652Z AUTO 10006KT M10/M12 A3010 RMK AO1 SLP233
T11001117





000
SAUS43 KBIS 180554
MTRN60
METAR KN60 180552Z AUTO 11006KT M11/M12 A3012 RMK AO1 SLP239
T11061122 11106 21128 410831128 56010





000
SAUS43 KBIS 180453
MTRN60
METAR KN60 180452Z AUTO 11005KT M12/M13 A3012 RMK AO1 SLP240
T11171133





000
SAUS43 KBIS 180354
MTRN60
METAR KN60 180352Z AUTO 10006KT M13/M14 A3014 RMK AO1 SLP247
T11281139





000
SAUS43 KBIS 180354
MTRN60
METAR KN60 180352Z AUTO 10006KT M13/M14 A3014 RMK AO1 SLP247
T11281139





000
SAUS43 KBIS 180253
MTRN60
METAR KN60 180252Z AUTO 13005KT M12/M13 A3015 RMK AO1 SLP250
T11171133 58004





000
SAUS43 KBIS 180154
MTRN60
METAR KN60 180152Z AUTO 12007KT M12/M13 A3016 RMK AO1 SLP254
T11171133





000
SAUS43 KBIS 180154
MTRN60
METAR KN60 180152Z AUTO 12007KT M12/M13 A3016 RMK AO1 SLP254
T11171133





000
SAUS43 KBIS 180053
MTRN60
METAR KN60 180052Z AUTO 12007KT M12/M14 A3016 RMK AO1 SLP254
T11221139





000
SAUS43 KBIS 172354
MTRN60
METAR KN60 172352Z AUTO 12008KT M11/M13 A3016 RMK AO1 SLP254
T11111128 11083 21111 50000





000
SAUS43 KBIS 172253
MTRN60
METAR KN60 172252Z AUTO 14008KT M09/M12 A3016 RMK AO1 SLP253
T10891117





000
SAUS43 KBIS 172154
MTRN60
METAR KN60 172152Z AUTO 15009KT M08/M11 A3017 RMK AO1 SLP254
T10831111





000
SAUS43 KBIS 172154
MTRN60
METAR KN60 172152Z AUTO 15009KT M08/M11 A3017 RMK AO1 SLP254
T10831111





000
SAUS43 KBIS 172053
MTRN60
METAR KN60 172052Z AUTO 14009KT M09/M12 A3016 RMK AO1 SLP252
T10891117 56017





000
SAUS43 KBIS 171954
MTRN60
METAR KN60 171952Z AUTO 14010KT M09/M12 A3017 RMK AO1 SLP255
T10891117





000
SAUS43 KBIS 171853
MTRN60
METAR KN60 171852Z AUTO 16008KT M09/M11 A3019 RMK AO1 SLP262
T10891111





000
SAUS43 KBIS 171754
MTRN60
METAR KN60 171752Z AUTO 16012KT M09/M12 A3021 RMK AO1 SLP271
T10941117 11089 21100 58004





000
SAUS43 KBIS 171653
MTRN60
METAR KN60 171652Z AUTO 17012KT M09/M12 A3024 RMK AO1 SLP279
T10941122





000
SAUS43 KBIS 171554
MTRN60
METAR KN60 171552Z AUTO 15011KT M10/M12 A3024 RMK AO1 SLP279
T11001122





000
SAUS43 KBIS 171554
MTRN60
METAR KN60 171552Z AUTO 15011KT M10/M12 A3024 RMK AO1 SLP279
T11001122





000
SAUS43 KBIS 171453
MTRN60
METAR KN60 171452Z AUTO 15009KT M10/M12 A3023 RMK AO1 SLP276
T11001122 58002





000
SAUS43 KBIS 171354
MTRN60
METAR KN60 171352Z AUTO 14010KT M09/M12 A3023 RMK AO1 SLP276
T10941117





000
SAUS43 KBIS 171253
MTRN60
METAR KN60 171252Z AUTO 16008KT M09/M11 A3023 RMK AO1 SLP277
T10941111





000
SAUS43 KBIS 171154
MTRN60
METAR KN60 171152Z AUTO 16008KT M09/M11 A3023 RMK AO1 SLP277
T10941111 11089 21094 56006





000
SAUS43 KBIS 171053
MTRN60
METAR KN60 171052Z AUTO 14008KT M09/M12 A3024 RMK AO1 SLP277
T10941117





000
SAUS43 KBIS 170954
MTRN60
METAR KN60 170952Z AUTO 14008KT M09/M12 A3024 RMK AO1 SLP279
T10941117





000
SAUS43 KBIS 170954
MTRN60
METAR KN60 170952Z AUTO 14008KT M09/M12 A3024 RMK AO1 SLP279
T10941117





000
SAUS43 KBIS 170853
MTRN60
METAR KN60 170852Z AUTO 13007KT M09/M12 A3025 RMK AO1 SLP283
T10891117 56010





000
SAUS43 KBIS 170853
MTRN60
METAR KN60 170852Z AUTO 13007KT M09/M12 A3025 RMK AO1 SLP283
T10891117 56010





000
SAUS43 KBIS 170754
MTRN60
METAR KN60 170752Z AUTO 12008KT M09/M12 A3027 RMK AO1 SLP287
T10941117





000
SAUS43 KBIS 170754
MTRN60
METAR KN60 170752Z AUTO 12008KT M09/M12 A3027 RMK AO1 SLP287
T10941117





000
SAUS43 KBIS 170653
MTRN60
METAR KN60 170652Z AUTO 12007KT M09/M12 A3027 RMK AO1 SLP287
T10941117





000
SAUS43 KBIS 170554
MTRN60
METAR KN60 170552Z AUTO 11005KT M09/M12 A3029 RMK AO1 SLP294
T10941117 11083 21094 410561094 56007





000
SAUS43 KBIS 170454
MTRN60
METAR KN60 170452Z AUTO 09006KT M09/M12 A3029 RMK AO1 SLP295
T10941122





000
SAUS43 KBIS 170454
MTRN60
METAR KN60 170452Z AUTO 09006KT M09/M12 A3029 RMK AO1 SLP295
T10941122





000
SAUS43 KBIS 170354
MTRN60
METAR KN60 170352Z AUTO 09005KT M09/M12 A3029 RMK AO1 SLP297
T10941122





000
SAUS43 KBIS 170253
MTRN60
METAR KN60 170252Z AUTO 07005KT M09/M12 A3031 RMK AO1 SLP302
T10941122 51002





000
SAUS43 KBIS 170154
MTRN60
METAR KN60 170152Z AUTO 07006KT M09/M12 A3031 RMK AO1 SLP301
T10891122





000
SAUS43 KBIS 170053
MTRN60
METAR KN60 170052Z AUTO 05005KT M09/M12 A3031 RMK AO1 SLP300
T10891122





000
SAUS43 KBIS 162353
MTRN60
METAR KN60 162352Z AUTO 04004KT M08/M12 A3030 RMK AO1 SLP298
T10831122 11072 21083 53001





000
SAUS43 KBIS 162253
MTRN60
METAR KN60 162252Z AUTO 04004KT M08/M12 A3030 RMK AO1 SLP297
T10831122





000
SAUS43 KBIS 162154
MTRN60
METAR KN60 162152Z AUTO 01005KT M08/M12 A3030 RMK AO1 SLP296
T10781122





000
SAUS43 KBIS 162053
MTRN60
METAR KN60 162052Z AUTO VRB06KT M08/M12 A3030 RMK AO1 SLP296
T10781117 56014





000
SAUS43 KBIS 161954
MTRN60
METAR KN60 161952Z AUTO 02005KT M08/M12 A3030 RMK AO1 SLP296
T10781122





000
SAUS43 KBIS 161853
MTRN60
METAR KN60 161852Z AUTO 02005KT M08/M12 A3032 RMK AO1 SLP302
T10781122





000
SAUS43 KBIS 161754
MTRN60
METAR KN60 161752Z AUTO VRB04KT M08/M12 A3034 RMK AO1 SLP309
T10781117 11072 21089 50003





000
SAUS43 KBIS 161653
MTRN60
METAR KN60 161652Z AUTO VRB03KT M08/M12 A3035 RMK AO1 SLP314
T10831117





000
SAUS43 KBIS 161554
MTRN60
METAR KN60 161552Z AUTO 06005KT M09/M12 A3034 RMK AO1 SLP311
T10891117





000
SAUS43 KBIS 161554
MTRN60
METAR KN60 161552Z AUTO 06005KT M09/M12 A3034 RMK AO1 SLP311
T10891117





000
SAUS43 KBIS 161454
MTRN60
METAR KN60 161452Z AUTO 05004KT M08/M11 A3033 RMK AO1 SLP307
T10831111 52004





000
SAUS43 KBIS 161353
MTRN60
METAR KN60 161352Z AUTO 04004KT M08/M11 A3033 RMK AO1 SLP304
T10781106





000
SAUS43 KBIS 161253
MTRN60
METAR KN60 161252Z AUTO 04004KT M07/M10 A3032 RMK AO1 SLP304
T10721100





000
SAUS43 KBIS 161154
MTRN60
METAR KN60 161152Z AUTO 36007KT M07/M11 A3032 RMK AO1 SLP302 70001
T10721106 11056 21072 51009





000
SAUS43 KBIS 161053
MTRN60
METAR KN60 161052Z AUTO 34009KT M07/M11 A3031 RMK AO1 SLP299
T10721111





000
SAUS43 KBIS 160954
MTRN60
METAR KN60 160952Z AUTO 36007KT M07/M11 A3030 RMK AO1 SLP295
T10671111





000
SAUS43 KBIS 160954
MTRN60
METAR KN60 160952Z AUTO 36007KT M07/M11 A3030 RMK AO1 SLP295
T10671111





000
SAUS43 KBIS 160853
MTRN60
METAR KN60 160852Z AUTO 35010KT M07/M11 A3029 RMK AO1 SLP291
T10671106 53001





000
SAUS43 KBIS 160754
MTRN60
METAR KN60 160752Z AUTO 02005KT M06/M09 A3028 RMK AO1 SLP284
T10611089





000
SAUS43 KBIS 160653
MTRN60
METAR KN60 160652Z AUTO 36005KT M06/M09 A3029 RMK AO1 SLP289
T10611089





000
SAUS43 KBIS 160554
MTRN60
METAR KN60 160552Z AUTO 36006KT M06/M08 A3029 RMK AO1 SLP289
T10561083 11056 21061 410221061 53001





000
SAUS43 KBIS 160453
MTRN60
METAR KN60 160452Z AUTO 36006KT M06/M09 A3028 RMK AO1 SLP288
T10561089





000
SAUS43 KBIS 160354
MTRN60
METAR KN60 160352Z AUTO 35009KT M06/M09 A3029 RMK AO1 SLP288
T10561089





000
SAUS43 KBIS 160354
MTRN60
METAR KN60 160352Z AUTO 35009KT M06/M09 A3029 RMK AO1 SLP288
T10561089





000
SAUS43 KBIS 160253
MTRN60
METAR KN60 160252Z AUTO 35008KT M06/M08 A3028 RMK AO1 SLP288
T10561083 51007





000
SAUS43 KBIS 160153
MTRN60
METAR KN60 160152Z AUTO 35009KT M06/M09 A3028 RMK AO1 SLP286
T10611089





000
SAUS43 KBIS 160053
MTRN60
METAR KN60 160052Z AUTO 35010KT M06/M09 A3027 RMK AO1 SLP284
T10611094





000
SAUS43 KBIS 152354
MTRN60
METAR KN60 152352Z AUTO 01008G19KT M06/M09 A3026 RMK AO1 SLP280
T10611094 11044 21061 51027





    US Dept of Commerce
    National Oceanic and Atmospheric Administration
    National Weather Service
    1325 East West Highway
    Silver Spring, MD 20910
    Page Author: NWS Internet Services Team
Disclaimer
Information Quality
Credits
Glossary
Privacy Policy
Freedom of Information Act (FOIA)
About Us
Career Opportunities